Leonard, Michigan
Current Conditions -  °F | °C
As of 11:13 PM on Sunday 25 Jan 2015 (Local Time) from KD95 Reporting Station
Clear Clear  
Wind Chill: 13°   Ceiling: Unl
Heat Index: 13°   Visibility: 10mi
Dew Point: 10°   Wind: 3mph
Humidity: 88%   Direction: 50°NE
Pressure: 30"   Gusts: NA
Location:  42.87°N, 83.14°W
Report Text: KD95 260413Z AUTO 05003KT 10SM CLR M10/M12 A3000 RMK AO2 T11051121
Loading
Personal Weather Stations






























Interactive Weather Map New forecast layout! Learn more

10-Day Weather Forecast

Advertisements
Track Severe Weather on mobile